Nearby METAR Reports

 

KRDU - Raleigh/Durham, North Carolina, USA
Distance from station: NNW 20mi, 33km
Updated: Thu, 17-Oct-2019 5:51pm EDT
Few Clouds
Few Clouds
 Wind from WNW
Wind: WNW 10 mph , 17 km/h, Gust: 18 mph , 30 km/h
Temperature: 63°F , 17°C
Dew Point: 36°F , 2°C
Humidity: 37%
Barometer: 29.83 inHg , 1010.2 hPa
Clouds: Few Clouds
Visibility: 10 miles , 16 km
Cloud details: Few Clouds 25000 ft
2019/10/17 21:51 KRDU 172151Z 29009G16KT 10SM FEW250 17/02 A2983 RMK AO2 SLP099 T01720017
KJNX - Smithfield Johns, North Carolina, USA
Distance from station: ESE 17mi, 28km
Updated: Thu, 17-Oct-2019 6:15pm EDT
Clear
Clear
 Wind from WSW
Wind: WSW 3 mph , 6 km/h
Temperature: 61°F , 16°C
Dew Point: 41°F , 5°C
Humidity: 48%
Barometer: 29.82 inHg , 1009.8 hPa
Clouds: Clear
Visibility: 10 miles , 16 km
2019/10/17 22:15 KJNX 172215Z AUTO 25003KT 10SM CLR 16/05 A2982 RMK AO2
 
KLHZ - Louisburg/Frankl, North Carolina, USA
Distance from station: NE 33mi, 54km
Updated: Thu, 17-Oct-2019 6:15pm EDT
Clear
Clear
 Wind from W
Wind: W 5 mph , 7 km/h
Temperature: 59°F , 15°C
Dew Point: 36°F , 2°C
Humidity: 42%
Barometer: 29.84 inHg , 1010.5 hPa
Clouds: Clear
Visibility: 10 miles , 16 km
2019/10/17 22:15 KLHZ 172215Z AUTO 27004KT 10SM CLR 15/02 A2984 RMK AO2
KPOB - Pope Afb, North Carolina, USA
Distance from station: SSW 37mi, 59km
Updated: Thu, 17-Oct-2019 5:56pm EDT
Clear
Clear
 Wind from W
Wind: W 9 mph , 15 km/h
Temperature: 64°F , 18°C
Dew Point: 36°F , 2°C
Humidity: 34%
Barometer: 29.84 inHg , 1010.5 hPa
Clouds: Clear
Visibility: 10 miles , 16 km
2019/10/17 21:56 KPOB 172156Z AUTO 28008KT 10SM CLR 18/02 A2984 RMK AO2 SLP108 T01800023 $
 
KSCR - Siler City, North Carolina, USA
Distance from station: W 47mi, 75km
Updated: Thu, 17-Oct-2019 6:15pm EDT
Clear
Clear
 Wind from calm
Wind: Calm
Temperature: 61°F , 16°C
Dew Point: 36°F , 2°C
Humidity: 39%
Barometer: 29.85 inHg , 1010.8 hPa
Clouds: Clear
Visibility: 10 miles , 16 km
2019/10/17 22:15 KSCR 172215Z AUTO 00000KT 10SM CLR 16/02 A2985 RMK AO2 T01590021
KTDF - Roxboro Person, North Carolina, USA
Distance from station: NNW 49mi, 79km
Updated: Thu, 17-Oct-2019 6:15pm EDT
Clear
Clear
 Wind from W
Wind: W 6 mph , 9 km/h
Temperature: 59°F , 15°C
Dew Point: 32°F , 0°C
Humidity: 36%
Barometer: 29.85 inHg , 1010.8 hPa
Clouds: Clear
Visibility: 10 miles , 16 km
2019/10/17 22:15 KTDF 172215Z AUTO 28005KT 10SM CLR 15/00 A2985 RMK AO2
 
KSOP - Southern Pines, North Carolina, USA
Distance from station: SW 50mi, 80km
Updated: Thu, 17-Oct-2019 5:56pm EDT
Clear
Clear
 Wind from W
Wind: W 7 mph , 11 km/h
Temperature: 63°F , 17°C
Dew Point: 37°F , 3°C
Humidity: 39%
Barometer: 29.86 inHg , 1011.2 hPa
Clouds: Clear
Visibility: 10 miles , 16 km
2019/10/17 21:56 KSOP 172156Z AUTO 28006KT 10SM CLR 17/03 A2986 RMK AO2 SLP115 T01670033
KHNZ - Henderson/Oxford, North Carolina, USA
Distance from station: N 52mi, 84km
Updated: Thu, 17-Oct-2019 6:15pm EDT
Clear
Clear
 Wind from calm
Wind: Calm
Temperature: 59°F , 15°C
Dew Point: 32°F , 0°C
Humidity: 36%
Barometer: 29.82 inHg , 1009.8 hPa
Clouds: Clear
Visibility: 10 miles , 16 km
2019/10/17 22:15 KHNZ 172215Z AUTO 00000KT 10SM CLR 15/00 A2982 RMK AO2 T01471004
 
KBUY - Burlington, North Carolina, USA
Distance from station: NW 54mi, 86km
Updated: Thu, 17-Oct-2019 5:54pm EDT
Clear
Clear
 Wind from W
Wind: W 12 mph , 19 km/h
Temperature: 64°F , 18°C
Dew Point: 32°F , 0°C
Humidity: 30%
Barometer: 29.84 inHg , 1010.5 hPa
Clouds: Clear
Visibility: 10 miles , 16 km
2019/10/17 21:54 KBUY 172154Z AUTO 28010KT 10SM CLR 18/00 A2984 RMK AO2 SLP102 T01780000
KTNB - Boone Watauga Ct, North Carolina, USA
Distance from station: SE 2mi, 3km
Updated: Thu, 17-Oct-2019 6:15pm EDT
Clear
Clear
 Wind from NW
Wind: NW 10 mph , 17 km/h, Gust: 21 mph , 33 km/h
Temperature: 48°F , 9°C
Wind Chill: 44°F , 7°C
Dew Point: 32°F , 0°C
Humidity: 54%
Barometer: 29.91 inHg , 1012.9 hPa
Clouds: Clear
Visibility: 10 miles , 16 km
2019/10/17 22:15 KTNB 172215Z AUTO 31009G18KT 10SM CLR 09/00 A2991 RMK AO2 T00941001
 
KGEV - Jefferson, North Carolina, USA
Distance from station: NE 21mi, 33km
Updated: Thu, 17-Oct-2019 6:15pm EDT
Clear
Clear
 Wind from W
Wind: W 5 mph , 7 km/h
Temperature: 48°F , 9°C
Wind Chill: 46°F , 8°C
Dew Point: 32°F , 0°C
Humidity: 54%
Barometer: 29.89 inHg , 1012.2 hPa
Clouds: Clear
Visibility: 10 miles , 16 km
2019/10/17 22:15 KGEV 172215Z AUTO 26004KT 10SM CLR 09/00 A2989 RMK AO2 T00881005
KFQD - Rutherfordton, North Carolina, USA
Distance from station: SSW 57mi, 92km
Updated: Thu, 17-Oct-2019 6:15pm EDT
Clear
Clear
 Wind from W
Wind: W 6 mph , 9 km/h
Temperature: 63°F , 17°C
Dew Point: 36°F , 2°C
Humidity: 37%
Barometer: 29.89 inHg , 1012.2 hPa
Clouds: Clear
Visibility: 10 miles , 16 km
2019/10/17 22:15 KFQD 172215Z AUTO 27005KT 10SM CLR 17/02 A2989 RMK AO2
 
KAVL - Asheville, North Carolina, USA
Distance from station: SW 72mi, 117km
Updated: Thu, 17-Oct-2019 5:54pm EDT
Clear
Clear
 Wind from N
Wind: N 12 mph , 19 km/h
Temperature: 57°F , 14°C
Dew Point: 32°F , 0°C
Humidity: 39%
Barometer: 29.92 inHg , 1013.2 hPa
Clouds: Clear
Visibility: 10 miles , 16 km
2019/10/17 21:54 KAVL 172154Z 36010KT 10SM CLR 14/00 A2992 RMK AO2 SLP126 T01390000 $